Time;durP1;ratioP1;P1;durP2;ratioP2;P2;SDS_P1;SDS_P2;PMS_P1;PMS_P2;Temp;Humidity;BMP_temperature;BMP_pressure;BME280_temperature;BME280_humidity;BME280_pressure;Samples;Min_cycle;Max_cycle;Signal;HPM_P1;HPM_P2
2021/12/04 00:00:00;;;;;;;90.78;83.38;;;;;;;4.33;100.00;100869.94;5113968;28;20116;-79
2021/12/04 00:02:28;;;;;;;95.90;88.07;;;;;;;4.04;100.00;100867.69;5113542;28;20044;-80
2021/12/04 00:04:56;;;;;;;96.38;88.60;;;;;;;4.08;100.00;100870.81;5113883;28;20055;-79
2021/12/04 00:07:23;;;;;;;88.03;80.53;;;;;;;3.93;100.00;100872.41;5113439;28;20048;-78
2021/12/04 00:09:51;;;;;;;89.72;81.85;;;;;;;4.00;100.00;100878.72;5113879;28;20048;-79
2021/12/04 00:12:20;;;;;;;90.95;83.20;;;;;;;3.95;100.00;100888.88;5113506;28;20480;-78
2021/12/04 00:14:48;;;;;;;86.35;78.75;;;;;;;3.92;100.00;100889.19;5114348;28;20044;-80
2021/12/04 00:17:15;;;;;;;84.10;76.60;;;;;;;4.00;100.00;100883.97;5113478;28;20147;-79
2021/12/04 00:19:42;;;;;;;100.53;92.25;;;;;;;4.03;100.00;100894.97;5113695;28;20051;-79
2021/12/04 00:22:09;;;;;;;95.72;87.63;;;;;;;4.01;100.00;100885.59;5113728;28;20115;-78
2021/12/04 00:24:36;;;;;;;90.22;82.63;;;;;;;3.93;100.00;100880.31;5113370;28;20377;-79
2021/12/04 00:27:03;;;;;;;101.20;93.20;;;;;;;4.15;100.00;100878.91;5113454;28;20047;-78
2021/12/04 00:29:31;;;;;;;96.63;89.22;;;;;;;4.64;100.00;100879.00;5113550;28;20112;-79
2021/12/04 00:32:00;;;;;;;86.63;79.40;;;;;;;3.71;100.00;100877.25;5113552;28;20107;-79
2021/12/04 00:34:29;;;;;;;95.57;87.78;;;;;;;3.94;100.00;100880.16;5113351;28;20488;-78
2021/12/04 00:50:43;;;;;;;90.57;82.78;;;;;;;3.47;100.00;100877.94;5113465;28;20046;-79
2021/12/04 00:53:10;;;;;;;86.45;79.25;;;;;;;3.64;100.00;100892.00;5114646;28;20051;-79
2021/12/04 00:55:36;;;;;;;86.63;79.43;;;;;;;3.50;100.00;100884.69;5117118;28;20059;-78
2021/12/04 00:58:04;;;;;;;89.35;81.35;;;;;;;3.38;100.00;100892.84;5116811;28;20471;-78
2021/12/04 01:00:32;;;;;;;91.55;83.72;;;;;;;3.59;100.00;100895.09;5117065;28;20063;-79
2021/12/04 01:02:59;;;;;;;92.20;84.05;;;;;;;3.41;100.00;100879.41;5116991;28;20492;-78
2021/12/04 01:05:26;;;;;;;96.53;88.63;;;;;;;3.90;100.00;100881.44;5116894;28;20108;-80
2021/12/04 01:07:52;;;;;;;86.00;77.95;;;;;;;3.66;100.00;100877.75;5116790;28;20132;-78
2021/12/04 01:10:19;;;;;;;79.90;72.72;;;;;;;3.63;100.00;100867.56;5116584;28;20556;-77
2021/12/04 01:12:49;;;;;;;87.35;79.75;;;;;;;3.33;100.00;100870.63;5116859;28;20475;-79
2021/12/04 01:15:16;;;;;;;86.00;78.30;;;;;;;3.18;100.00;100865.97;5116511;28;20059;-78
2021/12/04 01:17:44;;;;;;;95.40;86.82;;;;;;;3.26;100.00;100864.38;5116365;28;20477;-79
2021/12/04 01:20:12;;;;;;;83.47;75.68;;;;;;;3.28;100.00;100870.31;5116642;28;20056;-79
2021/12/04 01:22:39;;;;;;;95.63;87.43;;;;;;;3.26;100.00;100867.81;5116607;28;20142;-79
2021/12/04 01:25:07;;;;;;;92.25;84.10;;;;;;;3.55;100.00;100864.88;5116275;28;20398;-78
2021/12/04 01:27:35;;;;;;;81.95;74.60;;;;;;;3.29;100.00;100864.88;5116520;28;20043;-79
2021/12/04 01:30:02;;;;;;;83.35;75.93;;;;;;;3.31;100.00;100873.44;5116395;28;20471;-78
2021/12/04 01:32:29;;;;;;;89.28;81.55;;;;;;;3.37;100.00;100877.25;5116469;28;20059;-79
2021/12/04 01:34:57;;;;;;;93.80;86.07;;;;;;;3.33;100.00;100875.88;5116195;28;20058;-79
2021/12/04 01:37:24;;;;;;;85.75;77.93;;;;;;;3.28;100.00;100872.94;5116365;28;20062;-78
2021/12/04 01:39:51;;;;;;;87.00;79.20;;;;;;;3.24;100.00;100872.41;5116305;28;20052;-78
2021/12/04 01:42:20;;;;;;;86.90;79.40;;;;;;;3.42;100.00;100873.19;5115989;28;20451;-78
2021/12/04 01:44:47;;;;;;;83.45;76.20;;;;;;;3.36;100.00;100880.84;5115860;28;20051;-81
2021/12/04 01:47:15;;;;;;;83.28;76.18;;;;;;;3.20;100.00;100877.13;5114577;28;20092;-78
2021/12/04 01:49:42;;;;;;;86.50;78.78;;;;;;;3.58;100.00;100875.06;5116073;28;20048;-79
2021/12/04 01:52:10;;;;;;;77.30;70.32;;;;;;;3.98;100.00;100875.41;5115791;28;20051;-78
2021/12/04 01:54:37;;;;;;;73.00;66.38;;;;;;;3.22;100.00;100866.47;5115920;28;20043;-79
2021/12/04 01:57:05;;;;;;;83.68;76.47;;;;;;;3.52;100.00;100873.06;5115628;28;20588;-79
2021/12/04 01:59:32;;;;;;;80.07;73.05;;;;;;;3.15;100.00;100868.91;5116007;28;20112;-78
2021/12/04 02:02:11;;;;;;;85.15;77.55;;;;;;;3.16;100.00;100874.97;5115774;28;20104;-79
2021/12/04 02:04:38;;;;;;;78.90;71.35;;;;;;;3.30;100.00;100869.16;5115494;28;20445;-79
2021/12/04 02:07:05;;;;;;;87.95;80.28;;;;;;;3.11;100.00;100872.78;5115450;28;20080;-78
2021/12/04 02:09:35;;;;;;;88.70;81.15;;;;;;;3.09;100.00;100868.69;5115732;28;20465;-78
2021/12/04 02:12:03;;;;;;;93.55;85.53;;;;;;;3.14;100.00;100861.16;5115703;28;20051;-78
2021/12/04 02:14:30;;;;;;;94.15;86.32;;;;;;;3.14;100.00;100863.78;5115356;28;20047;-78
2021/12/04 02:16:57;;;;;;;96.80;88.85;;;;;;;4.52;100.00;100862.72;5115561;28;20047;-78
2021/12/04 02:19:25;;;;;;;85.18;77.72;;;;;;;3.13;100.00;100859.53;5115153;28;20445;-79
2021/12/04 02:21:53;;;;;;;93.30;85.40;;;;;;;3.00;100.00;100856.50;5115437;28;20090;-78
2021/12/04 02:24:19;;;;;;;98.38;89.97;;;;;;;2.93;100.00;100851.84;5115139;28;20052;-79
2021/12/04 02:26:47;;;;;;;86.32;78.72;;;;;;;3.00;100.00;100851.25;5115349;28;20047;-78
2021/12/04 02:29:14;;;;;;;93.47;85.40;;;;;;;3.57;100.00;100852.41;5115192;28;20066;-79
2021/12/04 02:31:40;;;;;;;89.03;81.20;;;;;;;2.87;100.00;100841.13;5115017;28;20112;-79
2021/12/04 02:34:07;;;;;;;85.25;77.55;;;;;;;3.07;100.00;100839.16;5115331;28;20047;-79
2021/12/04 02:36:34;;;;;;;95.30;87.53;;;;;;;2.93;100.00;100835.28;5115185;28;20111;-78
2021/12/04 02:39:02;;;;;;;86.10;78.68;;;;;;;2.98;100.00;100836.47;5115142;28;20122;-79
2021/12/04 02:41:29;;;;;;;81.45;74.05;;;;;;;2.79;100.00;100831.41;5114718;28;20051;-79
2021/12/04 02:43:56;;;;;;;82.88;75.57;;;;;;;2.93;100.00;100836.09;5115148;28;20047;-80
2021/12/04 02:46:23;;;;;;;93.50;85.80;;;;;;;2.91;100.00;100845.13;5113659;28;20054;-79
2021/12/04 02:48:49;;;;;;;91.25;83.80;;;;;;;3.18;100.00;100841.53;5114898;28;20048;-79
2021/12/04 02:51:16;;;;;;;91.45;84.22;;;;;;;2.72;100.00;100836.44;5114650;28;20461;-78
2021/12/04 02:53:43;;;;;;;94.22;86.22;;;;;;;2.82;100.00;100831.13;5114836;28;20047;-80
2021/12/04 02:56:11;;;;;;;92.53;84.38;;;;;;;2.74;100.00;100823.16;5114779;28;20048;-79
2021/12/04 02:58:44;;;;;;;85.47;78.55;;;;;;;2.79;100.00;100826.16;5114805;28;20054;-79
2021/12/04 03:01:11;;;;;;;90.47;83.00;;;;;;;2.75;100.00;100832.69;5186617;22;20480;-81
2021/12/04 03:03:37;;;;;;;86.15;79.20;;;;;;;2.62;100.00;100821.75;5034212;28;20049;-77
2021/12/04 03:06:04;;;;;;;86.50;79.22;;;;;;;2.74;100.00;100813.50;5033784;28;20053;-79
2021/12/04 03:08:31;;;;;;;86.05;78.63;;;;;;;2.56;100.00;100830.22;5034005;28;20045;-80
2021/12/04 03:10:58;;;;;;;88.15;80.93;;;;;;;2.55;100.00;100826.78;5033801;28;20436;-79
2021/12/04 03:13:26;;;;;;;87.90;80.50;;;;;;;2.65;100.00;100827.53;5034133;28;20406;-77
2021/12/04 03:15:58;;;;;;;89.75;82.45;;;;;;;2.61;100.00;100820.13;5033389;28;20049;-79
2021/12/04 03:18:25;;;;;;;87.80;80.37;;;;;;;2.62;100.00;100822.59;5033816;28;20046;-78
2021/12/04 03:20:54;;;;;;;87.68;79.82;;;;;;;2.62;100.00;100827.00;5033599;28;20053;-79
2021/12/04 03:23:28;;;;;;;89.35;81.85;;;;;;;2.79;100.00;100830.59;5033671;28;20064;-78
2021/12/04 03:25:57;;;;;;;82.40;75.30;;;;;;;2.55;100.00;100842.53;5033624;28;20477;-79
2021/12/04 03:28:25;;;;;;;80.43;73.60;;;;;;;2.70;100.00;100853.31;5033544;28;20045;-78
2021/12/04 03:30:57;;;;;;;79.78;72.93;;;;;;;2.67;100.00;100846.56;5033840;28;20050;-78
2021/12/04 03:41:36;;;;;;;94.38;86.20;;;;;;;2.57;100.00;100832.69;5033394;28;20079;-78
2021/12/04 03:44:03;;;;;;;90.05;83.07;;;;;;;2.57;100.00;100824.81;5033270;28;20497;-78
2021/12/04 03:46:31;;;;;;;80.97;74.18;;;;;;;2.59;100.00;100828.13;5033300;28;20547;-78
2021/12/04 03:48:58;;;;;;;87.80;80.85;;;;;;;2.96;100.00;100825.28;5033502;28;20049;-79
2021/12/04 03:51:25;;;;;;;87.40;80.22;;;;;;;2.39;100.00;100822.22;5033622;28;20135;-78
2021/12/04 03:53:51;;;;;;;85.47;78.40;;;;;;;2.45;100.00;100818.16;5033224;28;20042;-78
2021/12/04 03:56:23;;;;;;;85.93;79.03;;;;;;;2.48;100.00;100823.97;5033534;28;20054;-79
2021/12/04 03:58:50;;;;;;;86.20;78.85;;;;;;;2.30;100.00;100831.00;5033188;28;20531;-79
2021/12/04 04:01:16;;;;;;;79.03;72.25;;;;;;;2.16;100.00;100839.38;5031736;28;20460;-79
2021/12/04 04:03:45;;;;;;;87.50;80.40;;;;;;;2.12;100.00;100830.97;5033430;28;20111;-78
2021/12/04 04:06:12;;;;;;;84.05;77.05;;;;;;;2.24;100.00;100837.66;5033290;28;20050;-78
2021/12/04 04:08:38;;;;;;;80.20;73.50;;;;;;;2.28;100.00;100832.94;5032983;28;20470;-79
2021/12/04 04:11:05;;;;;;;88.45;81.45;;;;;;;2.31;100.00;100839.69;5033388;28;20076;-80
2021/12/04 04:13:32;;;;;;;94.30;86.68;;;;;;;2.52;100.00;100838.41;5033323;28;20068;-78
2021/12/04 04:16:00;;;;;;;86.30;79.20;;;;;;;2.05;100.00;100854.31;5033093;28;20045;-79
2021/12/04 04:18:30;;;;;;;83.35;76.38;;;;;;;2.13;100.00;100850.13;5033239;28;20057;-78
2021/12/04 04:20:58;;;;;;;94.30;86.72;;;;;;;2.30;100.00;100838.88;5033291;28;20081;-78
2021/12/04 04:23:25;;;;;;;94.00;86.40;;;;;;;2.15;100.00;100846.41;5033292;28;20128;-78
2021/12/04 04:25:52;;;;;;;88.63;81.18;;;;;;;2.56;100.00;100852.03;5032866;28;20053;-79
2021/12/04 04:28:19;;;;;;;87.20;79.70;;;;;;;2.40;100.00;100860.56;5034372;28;20049;-78
2021/12/04 04:30:46;;;;;;;86.43;79.82;;;;;;;2.45;100.00;100870.59;5037031;28;20049;-78
2021/12/04 04:33:14;;;;;;;85.22;77.82;;;;;;;2.43;100.00;100869.94;5036752;28;20436;-77
2021/12/04 04:35:41;;;;;;;80.00;73.20;;;;;;;2.48;100.00;100875.53;5037024;28;20135;-78
2021/12/04 04:38:19;;;;;;;81.35;74.47;;;;;;;2.46;100.00;100874.88;5036906;28;20049;-78
2021/12/04 04:57:35;;;;;;;79.88;71.97;;;;;;;2.32;100.00;100894.56;5036664;28;20044;-79
2021/12/04 05:00:12;;;;;;;83.55;76.70;;;;;;;2.18;100.00;100908.16;5036191;28;20497;-79
2021/12/04 05:11:05;;;;;;;85.85;79.20;;;;;;;2.17;100.00;100928.31;5036644;28;20107;-80
2021/12/04 05:13:32;;;;;;;92.50;83.68;;;;;;;2.17;100.00;100930.94;5036027;28;20401;-79
2021/12/04 05:16:10;;;;;;;82.97;75.03;;;;;;;2.38;100.00;100925.44;5036242;28;20049;-78
2021/12/04 05:18:40;;;;;;;90.22;83.03;;;;;;;2.10;100.00;100934.28;5035780;28;20060;-79
2021/12/04 05:21:10;;;;;;;79.68;73.28;;;;;;;2.22;100.00;100923.47;5035874;28;20430;-80
2021/12/04 05:23:40;;;;;;;74.97;69.05;;;;;;;2.34;100.00;100928.50;5035796;28;20088;-79
2021/12/04 05:26:12;;;;;;;78.22;71.97;;;;;;;2.15;100.00;100934.66;5036077;28;20118;-78
2021/12/04 05:28:39;;;;;;;75.50;69.43;;;;;;;2.05;100.00;100946.00;5035872;28;20064;-78
2021/12/04 05:31:06;;;;;;;77.85;71.72;;;;;;;2.21;100.00;100945.41;5035903;28;20119;-79
2021/12/04 05:33:33;;;;;;;77.47;71.45;;;;;;;2.13;100.00;100942.69;5035715;28;20053;-79
2021/12/04 05:35:59;;;;;;;80.13;73.70;;;;;;;2.22;100.00;100946.22;5035603;28;20050;-80
2021/12/04 05:38:27;;;;;;;70.03;64.15;;;;;;;2.15;100.00;100948.63;5035294;28;20473;-78
2021/12/04 05:40:54;;;;;;;74.18;67.88;;;;;;;2.13;100.00;100947.91;5035744;28;20488;-80
2021/12/04 05:43:23;;;;;;;74.97;68.75;;;;;;;2.15;100.00;100947.75;5035336;28;20049;-79
2021/12/04 05:45:56;;;;;;;75.00;68.55;;;;;;;2.08;100.00;100950.13;5036192;28;20085;-80
2021/12/04 05:48:29;;;;;;;;;;;;;;;2.00;100.00;100943.03;5036055;28;20054;-78
2021/12/04 05:53:58;;;;;;;80.88;74.28;;;;;;;2.12;100.00;100930.56;4991669;28;20494;-79
2021/12/04 05:56:26;;;;;;;69.30;63.60;;;;;;;2.07;100.00;100917.06;5015771;28;20490;-79
2021/12/04 05:58:54;;;;;;;76.05;69.53;;;;;;;2.02;100.00;100903.56;5015362;28;20054;-78
2021/12/04 06:01:23;;;;;;;83.53;76.82;;;;;;;2.09;100.00;100906.41;5014109;28;20070;-80
2021/12/04 06:03:50;;;;;;;84.90;78.28;;;;;;;2.44;100.00;100911.72;5015626;28;20050;-79
2021/12/04 06:06:17;;;;;;;77.80;71.50;;;;;;;1.98;100.00;100912.69;5015095;28;20115;-80
2021/12/04 06:08:44;;;;;;;79.38;73.13;;;;;;;2.04;100.00;100919.97;5015519;28;20049;-78
2021/12/04 06:11:10;;;;;;;72.60;66.90;;;;;;;2.00;100.00;100910.75;5015108;28;20482;-78
2021/12/04 06:13:37;;;;;;;76.85;70.55;;;;;;;1.87;100.00;100912.88;5015105;28;20470;-78
2021/12/04 06:16:06;;;;;;;82.22;75.80;;;;;;;2.93;100.00;100904.31;5015044;28;20054;-80
2021/12/04 06:18:34;;;;;;;71.05;65.35;;;;;;;1.97;100.00;100911.88;5014892;28;20045;-80
2021/12/04 06:23:46;;;;;;;66.47;61.33;;;;;;;1.97;100.00;100913.66;5015288;28;20394;-79
2021/12/04 06:26:13;;;;;;;70.53;65.38;;;;;;;1.86;100.00;100922.53;5015015;28;20056;-79
2021/12/04 06:28:40;;;;;;;68.38;63.28;;;;;;;1.60;100.00;100931.03;5014751;28;20119;-79
2021/12/04 06:31:09;;;;;;;65.53;60.42;;;;;;;1.63;100.00;100934.31;5014957;28;20045;-80
2021/12/04 06:33:37;;;;;;;65.10;59.85;;;;;;;1.49;100.00;100935.59;5015027;28;20049;-79
2021/12/04 06:36:05;;;;;;;63.70;58.30;;;;;;;1.45;100.00;100936.84;5014951;28;20050;-78
2021/12/04 06:38:32;;;;;;;75.60;69.90;;;;;;;1.77;100.00;100942.53;5014875;28;20049;-79
2021/12/04 06:40:59;;;;;;;73.35;67.93;;;;;;;1.60;100.00;100935.41;5014508;28;20046;-78
2021/12/04 06:43:26;;;;;;;72.22;66.55;;;;;;;1.53;100.00;100939.59;5014776;28;20049;-78
2021/12/04 06:45:58;;;;;;;76.43;70.35;;;;;;;1.34;100.00;100938.66;5014534;28;20054;-78
2021/12/04 06:48:33;;;;;;;78.90;72.60;;;;;;;1.79;100.00;100924.91;5014805;28;20060;-78
2021/12/04 06:51:04;;;;;;;69.40;63.90;;;;;;;1.50;100.00;100924.97;5013985;28;20053;-79
2021/12/04 06:53:36;;;;;;;74.43;68.82;;;;;;;1.31;100.00;100938.13;5014629;28;20549;-80
2021/12/04 06:56:06;;;;;;;74.95;69.35;;;;;;;1.34;100.00;100930.81;5014668;28;20123;-81
2021/12/04 06:58:32;;;;;;;75.53;69.90;;;;;;;1.27;100.00;100952.44;5014261;28;20054;-80
2021/12/04 07:00:59;;;;;;;76.00;70.13;;;;;;;1.19;100.00;100952.31;5013717;28;20486;-79
2021/12/04 07:03:28;;;;;;;77.88;71.70;;;;;;;1.32;100.00;100965.94;4975181;28;20539;-78
2021/12/04 07:05:54;;;;;;;78.70;72.80;;;;;;;1.38;100.00;100973.22;4975101;28;20101;-79
2021/12/04 07:08:21;;;;;;;78.07;71.90;;;;;;;1.56;100.00;100974.16;4975369;28;20054;-80
2021/12/04 07:10:48;;;;;;;71.18;65.82;;;;;;;1.62;100.00;100969.34;4975046;28;20534;-80
2021/12/04 07:13:15;;;;;;;70.13;64.63;;;;;;;1.44;100.00;100966.59;4975368;28;20458;-78
2021/12/04 07:15:44;;;;;;;75.75;69.88;;;;;;;1.36;100.00;100957.69;4974996;28;20058;-79
2021/12/04 07:18:11;;;;;;;74.00;68.40;;;;;;;1.34;100.00;100949.13;4975167;28;20046;-79
2021/12/04 07:20:40;;;;;;;66.93;61.33;;;;;;;1.41;100.00;100953.81;4975251;28;20113;-79
2021/12/04 07:23:07;;;;;;;69.93;64.20;;;;;;;1.37;100.00;100951.47;4974937;28;20050;-79
2021/12/04 07:25:34;;;;;;;70.22;64.53;;;;;;;1.32;100.00;100951.06;4975118;28;20051;-78
2021/12/04 07:28:00;;;;;;;82.18;76.00;;;;;;;1.80;100.00;100960.59;4975151;28;20512;-78
2021/12/04 07:30:27;;;;;;;74.85;69.05;;;;;;;1.32;100.00;100958.09;4974891;28;20121;-78
2021/12/04 07:32:54;;;;;;;81.68;75.55;;;;;;;1.27;100.00;100968.97;4974923;28;20055;-78
2021/12/04 07:35:21;;;;;;;74.38;68.65;;;;;;;1.49;100.00;100967.03;4974927;28;20567;-78
2021/12/04 07:37:49;;;;;;;72.53;67.13;;;;;;;1.46;100.00;100970.75;4975052;28;20062;-80
2021/12/04 07:40:16;;;;;;;70.38;64.88;;;;;;;1.48;100.00;100967.97;4975233;28;20074;-78
2021/12/04 07:42:43;;;;;;;73.22;67.32;;;;;;;1.51;100.00;100965.06;4974532;28;20054;-78
2021/12/04 07:45:10;;;;;;;68.28;62.90;;;;;;;1.38;100.00;100957.53;4974942;28;20070;-79
2021/12/04 07:47:37;;;;;;;69.75;64.38;;;;;;;1.63;100.00;100950.03;4974941;28;20455;-80
2021/12/04 07:50:06;;;;;;;73.05;67.43;;;;;;;1.58;100.00;100953.09;4975006;28;20457;-78
2021/12/04 07:52:32;;;;;;;70.80;65.50;;;;;;;2.06;100.00;100941.63;4974801;28;20054;-78
2021/12/04 07:55:01;;;;;;;71.72;66.38;;;;;;;1.84;100.00;100935.75;4974731;28;20475;-79
2021/12/04 07:57:29;;;;;;;69.13;63.95;;;;;;;2.02;100.00;100938.44;4974878;28;20055;-79
2021/12/04 07:59:56;;;;;;;73.75;68.30;;;;;;;2.14;100.00;100933.03;4974983;28;20047;-78
2021/12/04 08:02:22;;;;;;;67.80;62.80;;;;;;;1.90;100.00;100928.28;4996526;28;20058;-78
2021/12/04 08:04:49;;;;;;;70.95;65.75;;;;;;;1.82;100.00;100923.78;5017495;28;20465;-78
2021/12/04 08:07:16;;;;;;;78.97;73.25;;;;;;;1.93;100.00;100928.81;5017725;28;20050;-79
2021/12/04 08:09:43;;;;;;;77.88;72.32;;;;;;;2.04;100.00;100928.66;5017387;28;20049;-79
2021/12/04 08:12:11;;;;;;;73.03;67.93;;;;;;;2.01;100.00;100934.19;5017428;28;20050;-78
2021/12/04 08:14:38;;;;;;;71.72;66.38;;;;;;;1.80;100.00;100944.88;5017336;28;20109;-79
2021/12/04 08:17:05;;;;;;;78.07;71.80;;;;;;;1.99;100.00;100945.78;5017573;28;20049;-78
2021/12/04 08:19:32;;;;;;;79.97;73.57;;;;;;;1.67;100.00;100940.94;5017262;28;20058;-78
2021/12/04 08:21:59;;;;;;;81.35;74.70;;;;;;;1.76;100.00;100929.59;5017160;28;20133;-79
2021/12/04 08:24:27;;;;;;;79.82;72.93;;;;;;;1.74;100.00;100911.41;5017427;28;20054;-80
2021/12/04 08:26:53;;;;;;;89.63;80.47;;;;;;;1.73;100.00;100903.72;5017281;28;20379;-78
2021/12/04 08:29:22;;;;;;;80.45;71.85;;;;;;;1.82;100.00;100901.03;5017937;28;20058;-79
2021/12/04 08:31:50;;;;;;;87.85;78.95;;;;;;;1.79;100.00;100895.28;5017210;28;20455;-80
2021/12/04 08:34:18;;;;;;;88.28;79.18;;;;;;;1.78;100.00;100883.13;5017043;28;20470;-80
2021/12/04 08:36:45;;;;;;;89.15;80.10;;;;;;;2.46;100.00;100875.72;5016961;28;20053;-79
2021/12/04 08:39:12;;;;;;;101.25;90.82;;;;;;;1.50;100.00;100867.38;5017486;28;20061;-79
2021/12/04 08:41:40;;;;;;;99.45;89.80;;;;;;;1.68;100.00;100871.88;5016776;28;20536;-78
2021/12/04 08:44:07;;;;;;;94.22;84.82;;;;;;;1.73;100.00;100867.03;5017033;28;20061;-78
2021/12/04 08:46:37;;;;;;;101.60;91.80;;;;;;;1.80;100.00;100875.97;5016788;28;20501;-79
2021/12/04 08:49:05;;;;;;;103.22;92.93;;;;;;;1.62;100.00;100882.94;5016679;28;20509;-78
2021/12/04 08:51:33;;;;;;;97.85;88.35;;;;;;;1.82;100.00;100884.50;5016517;28;20371;-78
2021/12/04 08:53:59;;;;;;;91.38;83.13;;;;;;;1.51;100.00;100890.00;5016640;28;20049;-80
2021/12/04 08:56:26;;;;;;;90.97;82.30;;;;;;;1.53;100.00;100898.50;5016606;28;20119;-78
2021/12/04 08:58:53;;;;;;;90.38;81.57;;;;;;;1.64;100.00;100902.75;5016834;28;20065;-81
2021/12/04 09:01:25;;;;;;;94.65;85.72;;;;;;;1.74;100.00;100893.06;5015029;28;20490;-79
2021/12/04 09:03:57;;;;;;;88.60;80.43;;;;;;;1.71;100.00;100882.88;5016453;28;20548;-79
2021/12/04 09:06:24;;;;;;;96.15;87.43;;;;;;;1.91;100.00;100888.06;5016021;28;20068;-79
2021/12/04 09:08:52;;;;;;;86.78;79.03;;;;;;;2.04;100.00;100884.09;5016345;28;20100;-80
2021/12/04 09:11:22;;;;;;;91.57;83.68;;;;;;;2.00;100.00;100898.47;5016373;28;20120;-80
2021/12/04 09:13:49;;;;;;;84.72;76.97;;;;;;;1.94;100.00;100896.44;5015842;28;20053;-78
2021/12/04 09:16:17;;;;;;;89.10;80.72;;;;;;;2.11;100.00;100904.47;5016218;28;20406;-78
2021/12/04 09:18:44;;;;;;;93.95;85.18;;;;;;;2.27;100.00;100904.69;5016388;28;20116;-78
2021/12/04 09:21:13;;;;;;;99.07;89.18;;;;;;;2.10;100.00;100893.19;5016105;28;20478;-79
2021/12/04 09:23:45;;;;;;;104.28;93.47;;;;;;;2.00;100.00;100897.66;5016447;28;20104;-80
2021/12/04 09:26:15;;;;;;;93.80;84.20;;;;;;;2.04;100.00;100896.38;5016279;28;20050;-78
2021/12/04 09:28:50;;;;;;;101.13;90.40;;;;;;;2.15;100.00;100895.34;5015919;28;20112;-78
2021/12/04 09:31:29;;;;;;;106.80;95.82;;;;;;;2.17;100.00;100889.00;5015806;28;20054;-79
2021/12/04 09:34:11;;;;;;;106.20;95.55;;;;;;;1.93;100.00;100880.84;5015772;28;20060;-78
2021/12/04 09:36:59;;;;;;;;;;;;;;;2.03;100.00;100885.09;5016483;28;20064;-80
2021/12/04 10:13:15;;;;;;;97.22;87.38;;;;;;;1.98;100.00;100876.00;5015251;28;20056;-79
2021/12/04 10:18:41;;;;;;;98.20;88.43;;;;;;;1.97;100.00;100877.81;4992816;28;20049;-79
2021/12/04 10:24:29;;;;;;;104.97;95.43;;;;;;;1.98;100.00;100874.22;4991199;28;20057;-79
2021/12/04 10:32:32;;;;;;;109.55;98.00;;;;;;;2.03;100.00;100873.78;5015054;28;20130;-78
2021/12/04 10:35:02;;;;;;;118.03;106.32;;;;;;;2.05;100.00;100879.69;5014714;28;20108;-78
2021/12/04 10:37:30;;;;;;;121.25;109.43;;;;;;;2.01;100.00;100867.84;5014753;28;20387;-79
2021/12/04 10:40:00;;;;;;;108.10;92.43;;;;;;;1.96;100.00;100872.69;5015040;28;20054;-78
2021/12/04 10:42:33;;;;;;;106.18;92.13;;;;;;;1.98;100.00;100866.34;5014816;28;20104;-78
2021/12/04 10:45:00;;;;;;;109.22;93.72;;;;;;;2.02;100.00;100872.13;5014566;28;20379;-79
2021/12/04 10:47:28;;;;;;;108.82;96.90;;;;;;;1.97;100.00;100861.28;5014761;28;20486;-79
2021/12/04 10:50:08;;;;;;;105.53;94.07;;;;;;;1.94;100.00;100844.06;5014736;28;20049;-81
2021/12/04 10:52:47;;;;;;;111.50;98.90;;;;;;;1.87;100.00;100842.16;5014811;28;20056;-79
2021/12/04 10:55:19;;;;;;;92.03;84.05;;;;;;;1.89;100.00;100840.22;5014579;28;20406;-79
2021/12/04 10:58:24;;;;;;;91.63;82.80;;;;;;;1.81;100.00;100846.16;5014380;28;20449;-80
2021/12/04 11:01:01;;;;;;;98.13;89.35;;;;;;;2.08;100.00;100857.63;5014455;28;20046;-82
2021/12/04 11:03:39;;;;;;;102.40;93.55;;;;;;;2.10;100.00;100855.69;5012904;28;20064;-78
2021/12/04 11:22:52;;;;;;;98.68;88.18;;;;;;;2.39;100.00;100822.22;5013811;28;20054;-78
2021/12/04 11:39:25;;;;;;;104.78;94.18;;;;;;;2.38;100.00;100801.41;5013512;28;20052;-79
2021/12/04 11:42:07;;;;;;;99.88;89.57;;;;;;;2.18;100.00;100809.44;5013808;28;20514;-78
2021/12/04 11:44:47;;;;;;;101.00;90.53;;;;;;;2.55;100.00;100805.81;5013957;28;20049;-78
2021/12/04 11:47:16;;;;;;;101.13;91.22;;;;;;;2.40;100.00;100816.00;5013658;28;20045;-78
2021/12/04 11:49:51;;;;;;;88.15;79.70;;;;;;;2.53;100.00;100813.81;5013646;28;20529;-79
2021/12/04 11:52:21;;;;;;;93.88;84.47;;;;;;;2.79;100.00;100813.06;5013760;28;20041;-79
2021/12/04 11:54:50;;;;;;;95.97;86.40;;;;;;;2.58;100.00;100809.94;5013380;28;20533;-79
2021/12/04 11:57:28;;;;;;;95.07;85.50;;;;;;;2.64;100.00;100817.19;5013483;28;20057;-80
2021/12/04 11:59:55;;;;;;;95.05;85.63;;;;;;;2.60;100.00;100811.41;5013767;28;20110;-78
2021/12/04 12:02:31;;;;;;;88.13;79.30;;;;;;;2.48;100.00;100816.09;5012063;28;20062;-79
2021/12/04 12:04:58;;;;;;;98.28;88.18;;;;;;;2.59;100.00;100817.63;5013391;28;20058;-80
2021/12/04 12:07:29;;;;;;;97.93;87.63;;;;;;;2.50;100.00;100808.06;5013395;28;20054;-79
2021/12/04 12:10:05;;;;;;;92.10;82.25;;;;;;;2.64;100.00;100806.72;5013735;28;20078;-81
2021/12/04 12:12:36;;;;;;;98.20;87.90;;;;;;;2.61;100.00;100826.19;5013587;28;20053;-79
2021/12/04 12:15:16;;;;;;;97.20;86.90;;;;;;;2.69;100.00;100813.16;5013634;28;20054;-79
2021/12/04 12:17:44;;;;;;;93.80;84.10;;;;;;;2.66;100.00;100818.69;5013254;28;20467;-80
2021/12/04 12:20:20;;;;;;;92.80;83.13;;;;;;;2.65;100.00;100824.91;5013628;28;20049;-78
2021/12/04 12:22:50;;;;;;;98.25;87.75;;;;;;;2.75;100.00;100822.19;5013531;28;20466;-80
2021/12/04 12:25:25;;;;;;;101.35;91.40;;;;;;;2.74;100.00;100815.31;5013567;28;20046;-79
2021/12/04 12:33:32;;;;;;;102.53;93.57;;;;;;;2.62;100.00;100834.88;5013512;28;20056;-78
2021/12/04 12:36:14;;;;;;;104.82;95.60;;;;;;;2.71;100.00;100826.09;5013949;28;20057;-79
2021/12/04 12:38:45;;;;;;;136.82;98.45;;;;;;;2.61;100.00;100828.81;5013479;28;20045;-79
2021/12/04 12:41:20;;;;;;;130.63;98.80;;;;;;;2.71;100.00;100812.97;5013359;28;20053;-79
2021/12/04 12:43:53;;;;;;;104.65;90.50;;;;;;;2.53;100.00;100833.97;5013215;28;20054;-78
2021/12/04 12:46:21;;;;;;;103.43;92.05;;;;;;;2.46;100.00;100836.38;5013069;28;20054;-79
2021/12/04 12:48:53;;;;;;;96.13;85.57;;;;;;;2.51;100.00;100830.66;5013995;28;20128;-78
2021/12/04 12:51:28;;;;;;;97.22;86.05;;;;;;;2.62;100.00;100832.25;5016661;28;20065;-78
2021/12/04 12:53:57;;;;;;;111.30;93.72;;;;;;;2.60;100.00;100835.00;5016872;28;20061;-80
2021/12/04 12:56:27;;;;;;;104.68;90.80;;;;;;;2.58;100.00;100836.16;5016875;28;20049;-78
2021/12/04 12:58:57;;;;;;;100.50;89.72;;;;;;;2.55;100.00;100832.03;5016849;28;20057;-80
2021/12/04 13:12:48;;;;;;;117.43;105.53;;;;;;;2.53;100.00;100823.50;4977707;28;20062;-79
2021/12/04 13:15:29;;;;;;;114.70;103.35;;;;;;;4.90;100.00;100816.53;4977971;28;20145;-79
2021/12/04 13:17:56;;;;;;;105.13;94.22;;;;;;;3.06;100.00;100817.34;4979381;28;20113;-81
2021/12/04 13:20:24;;;;;;;94.90;81.68;;;;;;;2.58;100.00;100815.19;4979051;28;20055;-79
2021/12/04 13:22:50;;;;;;;99.20;86.50;;;;;;;2.59;100.00;100815.00;4978081;28;20051;-79
2021/12/04 13:25:17;;;;;;;109.50;93.53;;;;;;;2.62;100.00;100811.28;4977186;28;20047;-80
2021/12/04 13:30:14;;;;;;;111.53;99.50;;;;;;;4.39;100.00;100818.50;4985081;28;20043;-78
2021/12/04 13:32:45;;;;;;;117.07;105.53;;;;;;;2.94;100.00;100813.31;4981736;28;20055;-81
2021/12/04 13:35:15;;;;;;;113.20;101.80;;;;;;;2.47;100.00;100813.59;4982762;28;20046;-79
2021/12/04 13:37:43;;;;;;;117.75;105.30;;;;;;;2.45;100.00;100812.91;4988153;28;20058;-80
2021/12/04 13:40:12;;;;;;;113.28;101.68;;;;;;;2.40;100.00;100818.63;4980395;28;20054;-79
2021/12/04 13:42:40;;;;;;;111.22;99.57;;;;;;;2.39;100.00;100824.84;4982999;28;20051;-78
2021/12/04 13:45:10;;;;;;;116.15;104.60;;;;;;;2.60;100.00;100826.31;4987018;28;20427;-80